Latest Weather Observations for Weipa

IDQ60801

Issued at 10:32 am EST Friday 28 July 2017 (issued every 30 minutes, with the page automatically refreshed every 10 minutes)

About weather observations | Map of weather stations | Latest weather observations for QLD | Other Formats
Station Details ID: 027045 Name: WEIPA AERO Lat: -12.68 Lon: 141.92 Height: 17.96 m
Data from the previous 72 hours. | See also: Recent months at Weipa
Date/Time
EST
Temp
°C
App
Temp
°C
Dew
Point
°C
Rel
Hum
%
Delta-T
°C
Wind Press
QNH
hPa
Press
MSL
hPa
Rain since
9am
mm
Dir  Spd
km/h
Gust
km/h
Spd
kts
Gust
kts
28/10:30am 27.0 25.3 18.0 58 5.7 SE 24 35 13 19 1016.9 1016.8 0.0
28/10:00am 25.8 23.2 17.7 61 5.1 SE 28 41 15 22 1017.1 1017.0 0.0
28/09:30am 24.5 23.4 17.7 66 4.3 SE 20 33 11 18 1017.2 1017.1 0.0
28/09:00am 23.6 23.4 17.6 69 3.7 SE 15 24 8 13 1017.2 1017.1 0.0
28/08:30am 22.4 22.5 17.5 74 3.0 SSE 13 20 7 11 1016.9 1016.8 0.0
28/08:00am 21.3 21.4 17.5 79 2.3 SSE 13 19 7 10 1016.7 1016.6 0.0
28/07:30am 20.4 20.8 17.2 82 2.0 SSE 11 17 6 9 1016.4 1016.3 0.0
28/07:00am 19.6 19.8 16.8 84 1.7 SSE 11 17 6 9 1016.0 1015.9 0.0
28/06:30am 19.4 19.9 16.6 84 1.7 SSE 9 13 5 7 1015.8 1015.7 0.0
28/06:00am 19.4 20.0 16.8 85 1.6 SSE 9 13 5 7 1015.7 1015.6 0.0
28/05:30am 19.5 20.1 16.9 85 1.6 SSE 9 11 5 6 1015.5 1015.4 0.0
28/05:00am 19.6 20.7 17.2 86 1.5 SSE 7 9 4 5 1015.3 1015.2 0.0
28/04:30am 19.8 20.9 17.0 84 1.7 SSE 7 9 4 5 1015.2 1015.1 0.0
28/04:00am 20.7 21.9 17.3 81 2.1 SE 7 9 4 5 1015.0 1014.9 0.0
28/03:30am 21.2 22.0 17.4 79 2.3 SE 9 13 5 7 1015.2 1015.1 0.0
28/03:00am 21.2 22.4 17.4 79 2.3 SE 7 11 4 6 1015.2 1015.1 0.0
28/02:30am 21.2 22.5 17.6 80 2.2 SSE 7 13 4 7 1015.5 1015.4 0.0
28/02:00am 20.7 21.6 17.5 82 2.0 SE 9 13 5 7 1015.7 1015.6 0.0
28/01:30am 20.3 20.9 16.9 81 2.1 ESE 9 13 5 7 1015.6 1015.5 0.0
28/01:00am 20.7 21.4 17.1 80 2.2 SE 9 13 5 7 1015.8 1015.7 0.0
28/12:40am 20.8 21.2 17.2 80 2.2 SE 11 15 6 8 1015.8 1015.7 0.0
28/12:30am 20.7 21.1 17.3 81 2.1 SE 11 17 6 9 1015.8 1015.7 0.0
28/12:00am 20.1 21.0 16.5 80 2.2 SE 7 9 4 5 1015.9 1015.8 0.0
 
Date/Time
EST
Temp
°C
App
Temp
°C
Dew
Point
°C
Rel
Hum
%
Delta-T
°C
Wind Press
QNH
hPa
Press
MSL
hPa
Rain since
9am
mm
Dir  Spd
km/h
Gust
km/h
Spd
kts
Gust
kts
27/11:59pm 20.1 21.0 16.5 80 2.2 SE 7 9 4 5 1015.8 1015.7 0.0
27/11:30pm 20.0 21.8 15.4 75 2.7 CALM 0 6 0 3 1015.8 1015.7 0.0
27/11:00pm 20.9 21.7 15.9 73 3.0 E 6 6 3 3 1015.8 1015.7 0.0
27/10:30pm 21.7 22.4 16.0 70 3.4 E 7 9 4 5 1016.1 1016.0 0.0
27/10:00pm 22.4 22.7 16.0 67 3.9 E 9 11 5 6 1016.2 1016.1 0.0
27/09:30pm 23.0 22.6 16.1 65 4.2 ESE 13 17 7 9 1016.2 1016.1 0.0
27/09:00pm 23.7 23.2 16.0 62 4.7 ESE 13 17 7 9 1016.0 1015.9 0.0
27/08:30pm 24.4 23.0 15.6 58 5.3 ESE 17 22 9 12 1015.9 1015.8 0.0
27/08:00pm 24.6 23.6 15.5 57 5.5 ESE 15 19 8 10 1015.4 1015.3 0.0
27/07:30pm 25.3 23.8 15.3 54 6.0 ESE 17 24 9 13 1014.7 1014.6 0.0
27/07:00pm 25.8 24.3 15.2 52 6.4 E 17 22 9 12 1014.2 1014.1 0.0
27/06:30pm 26.4 24.9 15.4 50 6.7 E 17 20 9 11 1013.7 1013.6 0.0
27/06:00pm 27.1 25.1 15.5 49 7.1 E 20 26 11 14 1013.4 1013.3 0.0
27/05:30pm 27.5 25.2 15.8 48 7.2 E 22 33 12 18 1013.2 1013.1 0.0
27/05:00pm 28.8 26.0 16.4 47 7.7 E 26 39 14 21 1012.8 1012.7 0.0
27/04:30pm 28.9 26.4 16.1 46 7.9 E 24 30 13 16 1012.7 1012.6 0.0
27/04:00pm 29.5 26.9 14.9 41 8.9 ESE 22 33 12 18 1012.5 1012.4 0.0
27/03:30pm 29.9 27.2 15.6 42 8.8 ENE 24 33 13 18 1012.4 1012.3 0.0
27/03:00pm 29.7 26.9 15.4 42 8.8 E 24 35 13 19 1012.5 1012.4 0.0
27/02:30pm 30.0 28.2 16.1 43 8.6 ENE 20 30 11 16 1012.8 1012.7 0.0
27/02:00pm 29.5 27.6 15.2 41 8.8 ESE 19 32 10 17 1013.2 1013.1 0.0
27/01:30pm 29.3 27.0 15.8 44 8.3 E 22 32 12 17 1013.6 1013.5 0.0
27/01:00pm 28.7 26.2 15.2 43 8.2 SE 22 33 12 18 1013.9 1013.8 0.0
27/12:30pm 28.7 26.1 15.9 45 7.9 E 24 37 13 20 1014.4 1014.3 0.0
27/12:00pm 28.1 25.3 16.4 49 7.3 ESE 26 37 14 20 1014.7 1014.6 0.0
27/11:30am 27.6 25.1 17.2 53 6.5 ESE 26 37 14 20 1015.3 1015.2 0.0
27/11:00am 26.8 23.6 16.4 53 6.4 ESE 28 35 15 19 1015.6 1015.5 0.0
27/10:30am 27.1 25.2 17.6 56 6.0 ESE 24 32 13 17 1015.8 1015.7 0.0
27/10:00am 26.3 25.1 17.6 58 5.5 ESE 20 28 11 15 1016.0 1015.9 0.0
27/09:30am 25.1 24.8 18.3 66 4.3 SE 17 20 9 11 1016.0 1015.9 0.0
27/09:00am 23.6 23.5 17.8 70 3.6 SE 15 22 8 12 1015.7 1015.6 0.0
27/08:30am 22.3 23.0 17.9 76 2.7 SSE 11 17 6 9 1015.5 1015.4 0.0
27/08:00am 20.8 21.8 17.8 83 1.9 SSE 9 11 5 6 1015.2 1015.1 0.0
27/07:30am 19.7 20.7 17.8 89 1.2 SE 9 11 5 6 1014.8 1014.7 0.0
27/07:00am 18.6 19.8 16.8 89 1.1 ESE 6 7 3 4 1014.7 1014.6 0.0
27/06:30am 18.7 19.6 16.7 88 1.2 E 7 9 4 5 1014.5 1014.4 0.0
27/06:00am 19.2 19.9 17.0 87 1.3 ESE 9 11 5 6 1014.3 1014.2 0.0
27/05:30am 19.6 19.9 17.0 85 1.6 ESE 11 15 6 8 1014.0 1013.9 0.0
27/05:00am 20.0 19.9 17.0 83 1.8 ESE 13 15 7 8 1013.9 1013.8 0.0
27/04:30am 20.4 20.4 17.2 82 2.0 ESE 13 17 7 9 1013.9 1013.8 0.0
27/04:00am 20.8 20.4 17.2 80 2.2 ESE 15 20 8 11 1014.0 1013.9 0.0
27/03:30am 21.0 20.2 17.2 79 2.3 ESE 17 19 9 10 1013.8 1013.7 0.0
27/03:00am 21.5 20.9 17.5 78 2.5 E 17 20 9 11 1014.0 1013.9 0.0
27/02:30am 21.7 20.7 17.5 77 2.6 ESE 19 22 10 12 1014.4 1014.3 0.0
27/02:00am 21.7 21.1 17.5 77 2.6 ESE 17 22 9 12 1014.7 1014.6 0.0
27/01:30am 21.5 20.9 17.5 78 2.5 ESE 17 20 9 11 1015.0 1014.9 0.0
27/01:00am 21.5 21.3 17.5 78 2.5 ESE 15 17 8 9 1015.2 1015.1 0.0
27/12:30am 21.5 21.6 17.5 78 2.5 ESE 13 17 7 9 1015.6 1015.5 0.0
27/12:00am 21.4 21.7 17.0 76 2.7 ESE 11 15 6 8 1015.6 1015.5 0.0
 
Date/Time
EST
Temp
°C
App
Temp
°C
Dew
Point
°C
Rel
Hum
%
Delta-T
°C
Wind Press
QNH
hPa
Press
MSL
hPa
Rain since
9am
mm
Dir  Spd
km/h
Gust
km/h
Spd
kts
Gust
kts
26/11:30pm 21.4 21.7 17.0 76 2.7 ESE 11 13 6 7 1015.6 1015.5 0.0
26/11:00pm 21.6 22.2 16.8 74 2.9 ESE 9 9 5 5 1015.9 1015.8 0.0
26/10:30pm 22.4 23.0 16.9 71 3.4 ESE 9 9 5 5 1015.9 1015.8 0.0
26/10:00pm 23.0 23.6 16.8 68 3.8 ESE 9 13 5 7 1016.0 1015.9 0.0
26/09:30pm 24.0 23.2 17.0 65 4.3 ESE 17 19 9 10 1015.9 1015.8 0.0
26/09:00pm 24.3 23.0 16.8 63 4.6 ESE 19 22 10 12 1015.6 1015.5 0.0
26/08:30pm 24.8 23.2 16.5 60 5.1 E 20 30 11 16 1015.3 1015.2 0.0
26/08:00pm 25.3 23.8 16.4 57 5.5 ESE 19 28 10 15 1014.9 1014.8 0.0
26/07:30pm 25.8 24.2 16.4 56 5.8 ESE 20 26 11 14 1014.2 1014.1 0.0
26/07:00pm 26.5 24.7 16.1 52 6.4 E 20 28 11 15 1013.6 1013.5 0.0
26/06:30pm 27.0 25.8 16.0 51 6.8 E 17 22 9 12 1013.1 1013.0 0.0
26/06:00pm 28.0 25.7 15.6 46 7.6 ESE 22 32 12 17 1012.7 1012.6 0.0
26/05:30pm 29.1 26.6 15.2 42 8.5 E 22 30 12 16 1012.5 1012.4 0.0
26/05:00pm 29.5 27.7 15.6 43 8.6 ESE 19 24 10 13 1012.2 1012.1 0.0
26/04:30pm 30.7 28.7 15.5 39 9.4 E 20 30 11 16 1011.9 1011.8 0.0
26/04:00pm 29.7 27.3 15.4 42 8.8 E 22 33 12 18 1011.8 1011.7 0.0
26/03:30pm 29.9 26.7 15.2 41 9.0 ESE 26 32 14 17 1011.7 1011.6 0.0
26/03:00pm 30.9 28.3 14.9 37 9.8 E 22 33 12 18 1011.8 1011.7 0.0
26/02:30pm 31.1 28.2 15.1 38 9.8 E 24 32 13 17 1012.1 1012.0 0.0
26/02:00pm 30.4 28.3 17.1 44 8.4 E 24 33 13 18 1012.4 1012.3 0.0
26/01:30pm 30.0 28.0 16.4 44 8.5 E 22 35 12 19 1013.0 1012.9 0.0
26/01:00pm 29.3 26.9 16.5 46 8.0 E 24 37 13 20 1013.5 1013.4 0.0
26/12:30pm 30.1 28.0 16.1 42 8.7 E 22 33 12 18 1013.9 1013.8 0.0
26/12:00pm 28.3 26.0 16.6 49 7.3 ESE 24 33 13 18 1014.3 1014.2 0.0
26/11:30am 27.7 24.6 16.6 50 6.9 ESE 28 37 15 20 1014.7 1014.6 0.0
26/11:00am 28.8 26.7 18.0 52 6.9 ESE 26 33 14 18 1014.9 1014.8 0.0
26/10:30am 27.8 25.5 17.6 53 6.4 E 26 46 14 25 1015.3 1015.2 0.0
26/10:23am 27.9 25.3 17.7 53 6.5 ESE 28 46 15 25 1015.2 1015.1 0.0
26/10:00am 27.3 25.3 18.3 58 5.7 ESE 26 35 14 19 1015.3 1015.2 0.0
26/09:30am 25.9 23.9 18.3 63 4.8 ESE 26 32 14 17 1015.4 1015.3 0.0
26/08:30am 23.5 22.7 18.4 73 3.2 ESE 20 28 11 15 1015.0 1014.9 0.0
26/08:00am 22.3 21.9 18.1 77 2.6 SE 17 22 9 12 1014.8 1014.7 0.0
26/07:30am 21.3 21.8 18.3 83 1.9 E 13 19 7 10 1014.6 1014.5 0.0
26/07:00am 19.8 20.8 17.8 88 1.2 ESE 9 13 5 7 1014.3 1014.2 0.0
26/06:30am 19.0 20.3 17.1 89 1.2 ESE 6 7 3 4 1014.0 1013.9 0.0
26/06:00am 19.4 20.6 17.4 88 1.2 SSE 7 9 4 5 1013.8 1013.7 0.0
26/05:42am 19.5 20.8 17.5 88 1.2 SSE 7 9 4 5 1013.6 1013.5 0.0
26/05:30am 19.8 21.1 17.6 87 1.3 SSE 7 9 4 5 1013.6 1013.5 0.0
26/05:00am 20.4 21.8 17.8 85 1.6 SE 7 7 4 4 1013.4 1013.3 0.0
26/04:30am 20.7 22.1 17.7 83 1.8 SE 7 9 4 5 1013.6 1013.5 0.0
26/04:00am 21.0 22.5 18.0 83 1.9 SE 7 9 4 5 1013.6 1013.5 0.0
26/03:30am 21.1 21.8 17.9 82 2.0 E 11 15 6 8 1013.5 1013.4 0.0
26/03:00am 21.1 22.2 18.1 83 1.9 SE 9 13 5 7 1013.7 1013.6 0.0
26/02:30am 21.0 22.0 17.8 82 2.0 SE 9 11 5 6 1013.9 1013.8 0.0
26/02:00am 21.2 22.6 17.8 81 2.1 SSE 7 11 4 6 1014.0 1013.9 0.0
26/01:30am 21.2 22.5 17.6 80 2.2 SSE 7 9 4 5 1014.2 1014.1 0.0
26/01:00am 21.8 22.9 18.0 79 2.4 SE 9 13 5 7 1014.5 1014.4 0.0
26/12:30am 21.8 22.8 17.8 78 2.5 SE 9 11 5 6 1014.7 1014.6 0.0
26/12:00am 22.0 22.6 17.6 76 2.7 SE 11 13 6 7 1014.9 1014.8 0.0
 
Date/Time
EST
Temp
°C
App
Temp
°C
Dew
Point
°C
Rel
Hum
%
Delta-T
°C
Wind Press
QNH
hPa
Press
MSL
hPa
Rain since
9am
mm
Dir  Spd
km/h
Gust
km/h
Spd
kts
Gust
kts
25/11:30pm 22.3 22.8 17.4 74 3.0 ESE 11 15 6 8 1015.1 1015.0 0.0
25/11:00pm 22.5 23.0 17.4 73 3.1 SE 11 15 6 8 1015.2 1015.1 0.0
25/10:30pm 23.0 23.0 17.2 70 3.6 ESE 13 17 7 9 1015.4 1015.3 0.0
25/10:00pm 23.2 23.1 17.0 68 3.8 ESE 13 15 7 8 1015.3 1015.2 0.0
25/09:30pm 24.1 22.4 17.1 65 4.3 ESE 22 28 12 15 1015.2 1015.1 0.0
25/09:00pm 24.3 23.3 16.6 62 4.7 ESE 17 24 9 13 1015.1 1015.0 0.0
25/08:30pm 24.6 23.5 16.3 60 5.1 E 17 24 9 13 1014.8 1014.7 0.0
25/08:00pm 25.2 23.5 15.8 56 5.7 ESE 19 22 10 12 1014.4 1014.3 0.0
25/07:30pm 25.7 24.0 15.7 54 6.1 ESE 19 24 10 13 1014.0 1013.9 0.0
25/07:00pm 26.3 24.4 15.7 52 6.5 E 20 28 11 15 1013.5 1013.4 0.0
25/06:30pm 27.0 25.3 15.7 50 6.9 E 19 30 10 16 1013.1 1013.0 0.0
25/06:00pm 27.8 25.4 15.5 47 7.5 E 22 30 12 16 1012.6 1012.5 0.0
25/05:30pm 28.8 25.4 15.7 45 8.1 E 28 37 15 20 1012.3 1012.2 0.0
25/05:00pm 29.7 26.2 15.4 42 8.8 ESE 28 39 15 21 1012.0 1011.9 0.0
25/04:30pm 30.6 26.9 15.1 39 9.5 ESE 28 35 15 19 1011.9 1011.8 0.0
25/04:00pm 31.2 27.9 16.0 40 9.5 ESE 28 39 15 21 1011.7 1011.6 0.0
25/03:30pm 31.6 28.1 15.5 37 10.0 E 28 39 15 21 1011.6 1011.5 0.0
25/03:00pm 31.8 28.2 15.3 37 10.2 E 28 39 15 21 1011.7 1011.6 0.0
25/02:38pm 31.6 27.4 14.7 36 10.4 ESE 30 48 16 26 1011.7 1011.6 0.0
25/02:30pm 31.8 28.7 15.7 37 10.0 ESE 26 44 14 24 1011.9 1011.8 0.0
25/02:00pm 31.5 27.0 15.0 36 10.2 ESE 32 44 17 24 1012.1 1012.0 0.0
25/01:30pm 31.6 27.2 15.1 36 10.2 ESE 32 48 17 26 1012.4 1012.3 0.0
25/01:00pm 30.5 26.4 15.0 39 9.5 ESE 30 43 16 23 1012.9 1012.8 0.0
25/12:30pm 30.8 26.2 15.2 38 9.6 E 33 44 18 24 1013.2 1013.1 0.0
25/12:00pm 30.4 25.5 15.3 40 9.3 ESE 35 46 19 25 1013.5 1013.4 0.0
25/11:30am 30.1 27.0 17.5 46 8.0 E 30 39 16 21 1013.9 1013.8 0.0
25/11:00am 28.9 25.8 17.4 49 7.3 ESE 30 39 16 21 1014.2 1014.1 0.0

Other Formats:

Comma delimited format used in spreadsheet applications
http://www.bom.gov.au/fwo/IDQ60801/IDQ60801.94170.axf

JavaScript Object Notation format (JSON) in row-major order
http://www.bom.gov.au/fwo/IDQ60801/IDQ60801.94170.json